Time;durP1;ratioP1;P1;durP2;ratioP2;P2;SDS_P1;SDS_P2;PMS_P1;PMS_P2;Temp;Humidity;BMP_temperature;BMP_pressure;BME280_temperature;BME280_humidity;BME280_pressure;Samples;Min_cycle;Max_cycle;Signal;HPM_P1;HPM_P2
2022/02/12 00:02:42;;;;;;;98.88;65.30;;;9.30;96.00;;;;;;5113174;28;20422;-75
2022/02/12 00:05:45;;;;;;;94.30;61.70;;;9.40;95.50;;;;;;5113087;28;20042;-75
2022/02/12 00:08:49;;;;;;;100.47;63.78;;;9.40;95.30;;;;;;5112953;28;20050;-75
2022/02/12 00:11:53;;;;;;;92.15;62.63;;;9.30;95.40;;;;;;5112003;28;20055;-75
2022/02/12 00:14:57;;;;;;;85.13;59.05;;;9.20;95.60;;;;;;5112721;28;20398;-75
2022/02/12 00:18:01;;;;;;;85.32;56.42;;;9.10;95.50;;;;;;5112252;28;20043;-75
2022/02/12 00:21:05;;;;;;;85.43;56.55;;;9.10;95.70;;;;;;5112102;28;20050;-75
2022/02/12 00:24:09;;;;;;;73.35;49.72;;;9.00;95.90;;;;;;5112797;28;20085;-75
2022/02/12 00:27:13;;;;;;;74.95;48.55;;;9.00;95.80;;;;;;5112826;28;20121;-75
2022/02/12 00:30:17;;;;;;;82.55;48.47;;;9.00;95.90;;;;;;5112260;28;20059;-75
2022/02/12 00:33:21;;;;;;;80.68;50.83;;;9.00;95.80;;;;;;5112361;28;20047;-75
2022/02/12 00:36:25;;;;;;;83.68;53.40;;;9.00;95.80;;;;;;5112546;28;20386;-75
2022/02/12 00:39:29;;;;;;;77.22;54.47;;;9.10;95.60;;;;;;5112479;28;20054;-75
2022/02/12 00:42:33;;;;;;;81.10;54.85;;;9.10;95.00;;;;;;5111499;28;20051;-75
2022/02/12 00:45:38;;;;;;;77.15;50.60;;;9.10;94.90;;;;;;5112809;28;20050;-75
2022/02/12 00:48:42;;;;;;;80.68;50.90;;;9.10;95.00;;;;;;5112275;28;20233;-75
2022/02/12 00:51:46;;;;;;;80.32;50.97;;;9.00;94.90;;;;;;5111760;28;20058;-75
2022/02/12 00:54:50;;;;;;;83.45;52.25;;;9.00;94.90;;;;;;5111772;28;20043;-75
2022/02/12 00:57:54;;;;;;;77.10;52.58;;;9.00;94.90;;;;;;5112165;28;20054;-75
2022/02/12 01:00:58;;;;;;;94.03;57.25;;;9.00;94.80;;;;;;5111678;28;20042;-75
2022/02/12 01:04:03;;;;;;;82.05;54.97;;;8.90;94.90;;;;;;5112047;28;20051;-75
2022/02/12 01:07:07;;;;;;;89.95;59.05;;;8.80;95.00;;;;;;5112095;28;20060;-75
2022/02/12 01:10:13;;;;;;;90.75;56.97;;;8.60;95.00;;;;;;5111977;28;20061;-75
2022/02/12 01:13:17;;;;;;;89.82;55.70;;;8.40;95.20;;;;;;5111548;28;20502;-75
2022/02/12 01:16:21;;;;;;;83.43;54.40;;;8.30;95.60;;;;;;5110721;28;20110;-75
2022/02/12 01:19:25;;;;;;;73.40;49.25;;;8.30;95.80;;;;;;5110938;28;20043;-75
2022/02/12 01:22:29;;;;;;;85.10;53.22;;;8.30;96.20;;;;;;5111459;28;20521;-75
2022/02/12 01:25:33;;;;;;;90.55;54.63;;;8.30;96.20;;;;;;5111876;28;20046;-75
2022/02/12 01:28:37;;;;;;;91.22;53.70;;;8.30;96.10;;;;;;5111785;28;20042;-75
2022/02/12 01:31:41;;;;;;;88.47;52.55;;;8.30;95.70;;;;;;5111512;28;20046;-75
2022/02/12 01:34:45;;;;;;;79.70;52.65;;;8.30;95.90;;;;;;5111700;28;20039;-75
2022/02/12 01:37:50;;;;;;;73.80;48.42;;;8.30;96.00;;;;;;5111136;28;20114;-75
2022/02/12 01:40:55;;;;;;;74.53;50.60;;;8.20;96.20;;;;;;5111406;28;20050;-77
2022/02/12 01:44:08;;;;;;;81.28;48.67;;;8.10;96.50;;;;;;5111323;28;20054;-75
2022/02/12 01:47:12;;;;;;;78.50;51.20;;;8.20;96.30;;;;;;5111566;28;20047;-75
2022/02/12 01:50:17;;;;;;;80.78;51.70;;;8.10;96.10;;;;;;5070884;28;20044;-75
2022/02/12 01:53:23;;;;;;;82.03;50.83;;;8.10;96.10;;;;;;5069991;28;20432;-75
2022/02/12 01:56:28;;;;;;;77.63;49.80;;;7.90;95.70;;;;;;5058406;28;20047;-75
2022/02/12 01:59:34;;;;;;;78.03;50.38;;;7.90;96.30;;;;;;5058422;28;20479;-75
2022/02/12 02:02:39;;;;;;;78.28;51.28;;;7.90;96.90;;;;;;5070483;28;20036;-75
2022/02/12 02:05:45;;;;;;;79.53;49.42;;;7.90;97.20;;;;;;5070128;28;20055;-75
2022/02/12 02:08:49;;;;;;;81.15;50.00;;;7.90;97.00;;;;;;5074520;28;20036;-75
2022/02/12 02:11:53;;;;;;;74.35;48.17;;;8.00;97.10;;;;;;5073599;28;20063;-75
2022/02/12 02:14:58;;;;;;;70.10;47.83;;;8.00;97.00;;;;;;5074620;28;20043;-75
2022/02/12 02:18:02;;;;;;;76.93;47.80;;;8.00;97.20;;;;;;5074386;28;20044;-75
2022/02/12 02:21:08;;;;;;;67.97;45.90;;;8.10;96.50;;;;;;5074591;28;20051;-75
2022/02/12 02:24:17;;;;;;;71.45;47.15;;;8.10;96.10;;;;;;5074381;28;20056;-75
2022/02/12 02:27:22;;;;;;;73.32;48.15;;;7.90;94.90;;;;;;5062044;28;20052;-75
2022/02/12 02:30:27;;;;;;;80.85;48.63;;;7.70;95.20;;;;;;5073111;28;20411;-74
2022/02/12 02:33:31;;;;;;;73.20;48.15;;;7.60;95.70;;;;;;5061786;28;20040;-75
2022/02/12 02:36:35;;;;;;;78.38;49.95;;;7.50;95.70;;;;;;5073843;28;20290;-78
2022/02/12 02:39:39;;;;;;;71.00;46.45;;;7.40;95.70;;;;;;5073563;28;20503;-78
2022/02/12 02:42:45;;;;;;;71.82;47.97;;;7.50;95.70;;;;;;5074319;28;20051;-78
2022/02/12 02:45:50;;;;;;;80.40;48.10;;;7.50;95.50;;;;;;5073953;28;20495;-77
2022/02/12 02:48:55;;;;;;;82.82;50.70;;;7.30;95.70;;;;;;5096325;28;20054;-77
2022/02/12 02:58:46;;;;;;;77.13;50.95;;;7.10;96.70;;;;;;5113810;28;20058;-77
2022/02/12 03:01:52;;;;;;;75.60;48.72;;;7.20;97.20;;;;;;5113552;28;20494;-77
2022/02/12 03:04:57;;;;;;;76.55;48.00;;;7.20;97.50;;;;;;5114449;28;20502;-77
2022/02/12 03:08:01;;;;;;;72.03;45.72;;;7.40;97.50;;;;;;5114094;28;20098;-77
2022/02/12 03:11:06;;;;;;;70.97;47.38;;;7.50;97.60;;;;;;5114115;28;20050;-77
2022/02/12 03:14:10;;;;;;;76.50;48.05;;;7.60;97.30;;;;;;5113306;28;20113;-77
2022/02/12 03:17:14;;;;;;;68.97;47.67;;;7.40;96.90;;;;;;5113830;28;20399;-77
2022/02/12 03:20:18;;;;;;;71.55;47.97;;;7.50;96.80;;;;;;5113254;28;20047;-77
2022/02/12 03:23:22;;;;;;;75.07;48.50;;;7.40;96.40;;;;;;5113571;28;20066;-77
2022/02/12 03:26:26;;;;;;;72.45;45.95;;;7.40;96.60;;;;;;5113076;28;20043;-77
2022/02/12 03:29:30;;;;;;;74.32;45.72;;;7.40;96.20;;;;;;5113725;28;20502;-77
2022/02/12 03:32:34;;;;;;;65.80;45.17;;;7.30;96.00;;;;;;5112956;28;20431;-77
2022/02/12 03:35:39;;;;;;;70.95;45.08;;;7.30;96.10;;;;;;5113075;28;20043;-77
2022/02/12 03:38:48;;;;;;;69.88;43.63;;;7.20;95.60;;;;;;5112870;28;20059;-77
2022/02/12 03:41:53;;;;;;;63.15;43.65;;;7.10;95.50;;;;;;5113521;28;20058;-77
2022/02/12 03:44:57;;;;;;;67.68;44.00;;;7.00;95.70;;;;;;5113674;28;20047;-77
2022/02/12 03:48:02;;;;;;;63.22;41.38;;;7.00;95.60;;;;;;5113183;28;20502;-77
2022/02/12 03:51:06;;;;;;;63.30;39.78;;;7.00;95.40;;;;;;5113239;28;20058;-77
2022/02/12 03:54:10;;;;;;;66.22;39.83;;;6.80;95.40;;;;;;5112854;28;20396;-77
2022/02/12 03:57:14;;;;;;;68.68;38.78;;;6.80;96.20;;;;;;5113110;28;20074;-77
2022/02/12 04:00:19;;;;;;;61.50;38.95;;;6.70;96.20;;;;;;5113389;28;20047;-76
2022/02/12 04:03:23;;;;;;;60.83;37.58;;;6.80;96.70;;;;;;5112189;28;20113;-76
2022/02/12 04:06:27;;;;;;;57.00;37.90;;;6.90;97.10;;;;;;5112360;28;20046;-77
2022/02/12 04:09:31;;;;;;;58.53;38.08;;;6.80;96.90;;;;;;5112459;28;20046;-76
2022/02/12 04:12:35;;;;;;;67.75;39.45;;;6.80;96.90;;;;;;5112033;28;20066;-76
2022/02/12 04:15:39;;;;;;;57.83;37.17;;;6.90;96.80;;;;;;5111924;28;20046;-75
2022/02/12 04:18:43;;;;;;;65.15;38.85;;;6.90;96.80;;;;;;5112122;28;20051;-75
2022/02/12 04:21:47;;;;;;;66.57;39.15;;;6.90;96.50;;;;;;5112072;28;20510;-75
2022/02/12 04:24:51;;;;;;;55.78;36.53;;;7.00;96.70;;;;;;5113004;28;20047;-75
2022/02/12 04:27:55;;;;;;;55.67;36.38;;;7.00;96.90;;;;;;5113981;28;20038;-75
2022/02/12 04:30:59;;;;;;;54.67;36.22;;;7.00;96.90;;;;;;5112245;28;20058;-74
2022/02/12 04:34:03;;;;;;;57.85;35.20;;;6.90;96.60;;;;;;5112287;28;20043;-75
2022/02/12 04:37:07;;;;;;;62.15;36.75;;;6.90;96.90;;;;;;5112497;28;20043;-74
2022/02/12 04:40:13;;;;;;;60.55;35.67;;;7.00;97.30;;;;;;5112700;28;20042;-75
2022/02/12 04:43:18;;;;;;;59.95;37.78;;;7.00;97.20;;;;;;5112355;28;20047;-76
2022/02/12 04:46:22;;;;;;;56.25;35.67;;;7.10;97.40;;;;;;5112564;28;20046;-77
2022/02/12 04:49:26;;;;;;;62.28;37.40;;;7.10;97.40;;;;;;5112079;28;20050;-77
2022/02/12 04:52:30;;;;;;;58.42;35.80;;;7.20;97.00;;;;;;5111927;28;20316;-75
2022/02/12 04:55:35;;;;;;;56.45;37.15;;;7.10;96.90;;;;;;5112366;28;20157;-76
2022/02/12 04:58:39;;;;;;;62.00;41.92;;;7.10;97.10;;;;;;5112308;28;20062;-75
2022/02/12 05:01:44;;;;;;;55.72;38.03;;;7.10;97.30;;;;;;5111420;28;20046;-77
2022/02/12 05:04:48;;;;;;;47.58;31.60;;;7.20;97.40;;;;;;5111323;28;20391;-74
2022/02/12 05:07:52;;;;;;;51.20;33.38;;;7.50;96.80;;;;;;5112160;28;20051;-77
2022/02/12 05:10:56;;;;;;;50.15;32.13;;;7.30;96.50;;;;;;5112069;28;20055;-77
2022/02/12 05:14:00;;;;;;;46.70;30.42;;;7.10;95.90;;;;;;5110663;28;20047;-77
2022/02/12 05:17:04;;;;;;;46.42;29.48;;;6.90;96.40;;;;;;5110909;28;20060;-74
2022/02/12 05:20:09;;;;;;;50.00;30.35;;;6.80;96.10;;;;;;5111866;28;20059;-77
2022/02/12 05:23:14;;;;;;;45.90;30.25;;;6.80;96.50;;;;;;5111695;28;20286;-76
2022/02/12 05:26:19;;;;;;;50.78;30.42;;;6.80;96.50;;;;;;5111702;28;20047;-76
2022/02/12 05:29:23;;;;;;;54.03;32.58;;;6.80;96.60;;;;;;5111678;28;20046;-77
2022/02/12 05:32:27;;;;;;;55.50;31.23;;;6.80;97.10;;;;;;5111213;28;20059;-77
2022/02/12 05:35:31;;;;;;;50.28;31.70;;;6.90;96.80;;;;;;5111787;28;20415;-77
2022/02/12 05:38:36;;;;;;;48.25;31.38;;;6.90;97.20;;;;;;5112052;28;20050;-76
2022/02/12 05:41:41;;;;;;;50.17;31.85;;;7.00;97.50;;;;;;5111892;28;20043;-76
2022/02/12 05:44:45;;;;;;;51.47;30.48;;;7.00;97.90;;;;;;5111259;28;20050;-77
2022/02/12 05:47:49;;;;;;;48.60;31.88;;;7.10;98.40;;;;;;5112264;28;20046;-76
2022/02/12 05:50:56;;;;;;;47.92;31.60;;;7.30;98.60;;;;;;5112761;28;20051;-77
2022/02/12 05:54:02;;;;;;;52.70;31.35;;;7.30;98.00;;;;;;5112745;28;20066;-76
2022/02/12 05:57:06;;;;;;;51.08;31.25;;;7.30;98.10;;;;;;5112688;28;20050;-77
2022/02/12 06:00:11;;;;;;;61.58;36.05;;;7.30;97.20;;;;;;5113165;28;20054;-76
2022/02/12 06:03:16;;;;;;;53.65;33.42;;;7.20;97.80;;;;;;5112417;28;20304;-77
2022/02/12 06:06:20;;;;;;;71.35;32.95;;;7.30;98.10;;;;;;5112283;28;20043;-77
2022/02/12 06:09:25;;;;;;;59.08;34.80;;;7.30;97.60;;;;;;5113201;28;20046;-77
2022/02/12 06:12:29;;;;;;;57.05;33.72;;;7.20;97.40;;;;;;5111754;28;20105;-76
2022/02/12 06:15:37;;;;;;;53.22;33.03;;;7.30;97.80;;;;;;5112326;28;20050;-76
2022/02/12 06:18:42;;;;;;;57.70;34.13;;;7.20;96.70;;;;;;5113025;28;20514;-76
2022/02/12 06:21:48;;;;;;;76.13;40.17;;;7.10;97.00;;;;;;5112844;28;20093;-75
2022/02/12 06:24:55;;;;;;;62.28;37.67;;;7.10;96.70;;;;;;5112896;28;20046;-76
2022/02/12 06:28:00;;;;;;;64.47;35.92;;;7.10;96.60;;;;;;5112262;28;20047;-76
2022/02/12 06:31:05;;;;;;;52.60;33.75;;;7.00;96.90;;;;;;5113236;28;20058;-76
2022/02/12 06:34:09;;;;;;;57.70;35.22;;;6.90;96.90;;;;;;5100058;28;20046;-75
2022/02/12 06:37:14;;;;;;;71.80;37.03;;;7.10;97.20;;;;;;5112153;28;20058;-75
2022/02/12 06:40:18;;;;;;;59.72;37.20;;;7.20;96.90;;;;;;5112171;28;20042;-71
2022/02/12 06:43:22;;;;;;;61.83;37.63;;;7.30;96.80;;;;;;5111811;28;20051;-71
2022/02/12 06:46:25;;;;;;;58.63;37.67;;;7.30;97.10;;;;;;5111752;28;20051;-71
2022/02/12 06:49:30;;;;;;;79.00;38.65;;;7.50;97.30;;;;;;5111469;28;20047;-70
2022/02/12 06:52:34;;;;;;;75.30;40.22;;;7.60;97.10;;;;;;5100106;28;20514;-70
2022/02/12 06:55:38;;;;;;;78.63;38.85;;;7.80;97.00;;;;;;5115315;28;20046;-71
2022/02/12 06:58:42;;;;;;;71.40;39.03;;;8.00;96.80;;;;;;5115305;28;20046;-70
2022/02/12 07:01:46;;;;;;;68.53;38.55;;;8.30;96.50;;;;;;5115096;28;20062;-70
2022/02/12 07:04:50;;;;;;;60.58;37.80;;;8.40;96.50;;;;;;5114897;28;20059;-70
2022/02/12 07:07:53;;;;;;;72.82;39.58;;;8.70;96.70;;;;;;5115165;28;20051;-72
2022/02/12 07:10:57;;;;;;;66.97;39.38;;;9.00;95.90;;;;;;5114466;28;20054;-71
2022/02/12 07:14:02;;;;;;;60.67;38.42;;;9.20;95.60;;;;;;5114685;28;20066;-71
2022/02/12 07:17:06;;;;;;;59.65;36.58;;;9.40;95.10;;;;;;5114478;28;20217;-71
2022/02/12 07:20:13;;;;;;;63.40;37.13;;;9.50;95.10;;;;;;5115120;28;20078;-72
2022/02/12 07:23:16;;;;;;;72.32;35.80;;;9.70;94.90;;;;;;5114564;28;20399;-72
2022/02/12 07:26:22;;;;;;;59.65;35.88;;;9.80;94.70;;;;;;5115370;28;20042;-73
2022/02/12 07:29:27;;;;;;;56.00;34.92;;;10.00;94.70;;;;;;5114743;28;20047;-72
2022/02/12 07:32:35;;;;;;;65.05;37.05;;;10.30;94.60;;;;;;5114675;28;20050;-72
2022/02/12 07:35:38;;;;;;;54.67;35.25;;;10.40;93.90;;;;;;5116142;28;20047;-71
2022/02/12 07:38:42;;;;;;;57.70;34.30;;;10.60;94.00;;;;;;5115151;28;20391;-73
2022/02/12 07:41:46;;;;;;;49.33;31.77;;;10.90;93.80;;;;;;5114563;28;20043;-71
2022/02/12 07:44:55;;;;;;;46.33;30.77;;;11.20;93.60;;;;;;5114853;28;20042;-71
2022/02/12 07:47:59;;;;;;;54.55;34.20;;;11.40;93.00;;;;;;5114088;28;20402;-72
2022/02/12 07:51:03;;;;;;;40.42;28.42;;;11.60;92.80;;;;;;5115186;28;20388;-72
2022/02/12 07:54:11;;;;;;;40.13;26.45;;;11.70;93.00;;;;;;5114750;28;20043;-71
2022/02/12 07:57:16;;;;;;;37.88;25.63;;;11.90;92.90;;;;;;5113873;28;20494;-72
2022/02/12 08:00:20;;;;;;;31.35;22.10;;;12.10;92.50;;;;;;5112221;28;20043;-72
2022/02/12 08:03:24;;;;;;;38.28;21.02;;;12.30;92.10;;;;;;5111827;28;20510;-70
2022/02/12 08:09:51;;;;;;;34.95;19.63;;;12.60;90.80;;;;;;5114408;28;20059;-74
2022/02/12 08:12:56;;;;;;;22.67;16.30;;;12.80;90.40;;;;;;5113781;28;20059;-73
2022/02/12 08:16:01;;;;;;;27.92;16.80;;;13.00;89.40;;;;;;5115390;28;20383;-72
2022/02/12 08:19:05;;;;;;;22.27;14.77;;;13.20;88.10;;;;;;5113322;28;20379;-71
2022/02/12 08:22:10;;;;;;;23.65;14.98;;;13.40;85.90;;;;;;5114166;28;20050;-70
2022/02/12 08:25:14;;;;;;;24.15;15.45;;;13.50;85.20;;;;;;5113859;28;20498;-71
2022/02/12 08:28:19;;;;;;;22.67;16.15;;;13.80;85.50;;;;;;5113187;28;20046;-72
2022/02/12 08:31:23;;;;;;;21.27;16.20;;;14.00;85.30;;;;;;5114399;28;20047;-72
2022/02/12 08:34:28;;;;;;;22.45;14.85;;;14.10;84.90;;;;;;5113567;28;20059;-72
2022/02/12 08:37:32;;;;;;;19.95;12.25;;;14.30;84.90;;;;;;5113918;28;20050;-69
2022/02/12 08:40:37;;;;;;;21.98;13.70;;;14.50;82.90;;;;;;5113474;28;20047;-70
2022/02/12 08:43:43;;;;;;;19.23;12.32;;;14.60;82.10;;;;;;5112674;28;20047;-69
2022/02/12 08:46:48;;;;;;;21.33;12.48;;;14.70;81.60;;;;;;5112694;28;20391;-68
2022/02/12 08:49:52;;;;;;;19.73;11.82;;;14.90;81.50;;;;;;5112535;28;20510;-69
2022/02/12 08:52:56;;;;;;;26.88;12.70;;;15.00;81.10;;;;;;5112946;28;20062;-69
2022/02/12 08:56:00;;;;;;;15.75;11.88;;;15.10;81.10;;;;;;5113871;28;20113;-72
2022/02/12 08:59:05;;;;;;;19.77;12.20;;;15.20;79.60;;;;;;5112508;28;20050;-71
2022/02/12 09:02:10;;;;;;;19.38;11.82;;;15.20;80.10;;;;;;5113191;28;20058;-72
2022/02/12 09:05:17;;;;;;;15.70;11.07;;;15.30;80.20;;;;;;5114225;28;20399;-75
2022/02/12 09:08:21;;;;;;;13.77;8.65;;;15.40;80.00;;;;;;5113039;28;20106;-75
2022/02/12 09:11:28;;;;;;;14.00;6.65;;;15.50;79.60;;;;;;5113577;28;20070;-72
2022/02/12 09:14:32;;;;;;;12.85;7.10;;;15.60;78.60;;;;;;5114007;28;20383;-72
2022/02/12 09:17:37;;;;;;;10.57;5.93;;;15.60;78.10;;;;;;5114270;28;20050;-73
2022/02/12 09:20:41;;;;;;;9.48;6.60;;;15.70;78.20;;;;;;5112033;28;20047;-74
2022/02/12 09:23:45;;;;;;;15.95;6.00;;;15.70;78.50;;;;;;5112943;28;20498;-74
2022/02/12 09:26:49;;;;;;;8.93;6.00;;;15.80;78.90;;;;;;5114050;28;20281;-75
2022/02/12 09:29:58;;;;;;;11.13;6.15;;;15.90;78.30;;;;;;5113260;28;20046;-75
2022/02/12 09:33:04;;;;;;;7.57;5.95;;;15.90;77.30;;;;;;5112345;28;20051;-73
2022/02/12 09:36:08;;;;;;;11.65;5.63;;;16.00;77.50;;;;;;5113802;28;20391;-71
2022/02/12 09:39:15;;;;;;;11.73;5.57;;;16.10;77.40;;;;;;5112380;28;20688;-72
2022/02/12 09:42:20;;;;;;;17.38;6.80;;;16.20;76.10;;;;;;5112868;28;20046;-71
2022/02/12 09:45:26;;;;;;;7.63;5.38;;;16.20;75.70;;;;;;5112008;28;20050;-71
2022/02/12 09:48:35;;;;;;;9.60;5.18;;;16.30;75.00;;;;;;5111544;28;20050;-71
2022/02/12 09:51:40;;;;;;;14.20;6.47;;;16.40;75.00;;;;;;5111373;28;20051;-72
2022/02/12 09:54:46;;;;;;;9.55;5.95;;;16.60;74.10;;;;;;5112368;28;20046;-70
2022/02/12 09:57:50;;;;;;;14.85;5.88;;;16.60;74.20;;;;;;5111774;28;20141;-72
2022/02/12 10:00:55;;;;;;;19.08;5.93;;;16.70;73.50;;;;;;5099300;28;20074;-69
2022/02/12 10:03:59;;;;;;;9.80;4.93;;;16.80;73.50;;;;;;5111538;28;20043;-67
2022/02/12 10:07:03;;;;;;;17.45;6.25;;;16.90;73.40;;;;;;5112016;28;20490;-70
2022/02/12 10:10:19;;;;;;;10.57;5.38;;;17.00;73.00;;;;;;5112428;28;20498;-71
2022/02/12 10:13:30;;;;;;;13.30;5.32;;;17.00;72.90;;;;;;5110974;28;20522;-72
2022/02/12 10:17:00;;;;;;;9.15;5.10;;;17.00;72.60;;;;;;5112101;28;20039;-72
2022/02/12 10:20:06;;;;;;;9.27;5.07;;;17.00;72.30;;;;;;5112050;28;20038;-69
2022/02/12 10:23:17;;;;;;;9.80;5.07;;;17.10;72.40;;;;;;5110756;28;20043;-68
2022/02/12 10:26:21;;;;;;;9.95;5.75;;;17.20;71.30;;;;;;5111409;28;20047;-69
2022/02/12 10:29:25;;;;;;;13.57;6.30;;;17.30;70.80;;;;;;5115531;28;20046;-70
2022/02/12 10:32:30;;;;;;;10.82;5.68;;;17.20;71.10;;;;;;5115407;28;20513;-71
2022/02/12 10:35:35;;;;;;;13.02;7.20;;;17.10;71.40;;;;;;5114544;28;20047;-70
2022/02/12 10:38:46;;;;;;;11.80;7.22;;;17.10;72.50;;;;;;5113637;28;20395;-71
2022/02/12 10:42:07;;;;;;;17.48;6.40;;;17.10;72.30;;;;;;5102343;28;20043;-70
2022/02/12 10:45:18;;;;;;;12.60;6.93;;;17.00;72.80;;;;;;5114616;28;20498;-70
2022/02/12 10:48:25;;;;;;;15.60;6.68;;;17.00;73.40;;;;;;5114833;28;20055;-72
2022/02/12 10:51:31;;;;;;;17.92;6.82;;;17.00;72.70;;;;;;5115758;28;20125;-72
2022/02/12 10:54:42;;;;;;;12.90;6.80;;;17.00;72.70;;;;;;5115475;28;20043;-72
2022/02/12 10:57:47;;;;;;;8.70;5.50;;;17.10;71.40;;;;;;5114258;28;20039;-72
2022/02/12 11:00:54;;;;;;;10.75;6.20;;;17.00;70.10;;;;;;5112542;28;20046;-73
2022/02/12 11:03:59;;;;;;;8.20;5.57;;;17.00;71.20;;;;;;5113716;28;20046;-75
2022/02/12 11:07:05;;;;;;;10.50;6.07;;;16.90;70.20;;;;;;5113882;28;20054;-72
2022/02/12 11:10:10;;;;;;;13.10;6.32;;;16.80;70.30;;;;;;5114253;28;20039;-71
2022/02/12 11:13:15;;;;;;;10.40;6.43;;;16.90;71.90;;;;;;5114118;28;20059;-71
2022/02/12 11:16:19;;;;;;;16.20;6.82;;;16.70;70.80;;;;;;5114694;28;20407;-70
2022/02/12 11:19:25;;;;;;;13.77;6.00;;;16.70;72.30;;;;;;5113814;28;20046;-71
2022/02/12 11:22:30;;;;;;;14.10;6.20;;;16.60;72.00;;;;;;5114104;28;20042;-71
2022/02/12 11:25:36;;;;;;;14.52;6.10;;;16.70;72.30;;;;;;5114794;28;20066;-72
2022/02/12 11:28:41;;;;;;;13.45;6.57;;;16.90;71.70;;;;;;5113544;28;20529;-72
2022/02/12 11:32:10;;;;;;;12.80;7.30;;;16.80;72.10;;;;;;5113087;28;20513;-72
2022/02/12 11:35:19;;;;;;;12.40;6.53;;;16.90;72.20;;;;;;5113899;28;20105;-73
2022/02/12 11:38:34;;;;;;;12.10;6.32;;;16.90;72.20;;;;;;5114510;28;20042;-73
2022/02/12 11:41:46;;;;;;;13.07;5.65;;;16.90;72.10;;;;;;5113640;28;20034;-72
2022/02/12 11:44:51;;;;;;;14.93;6.80;;;16.90;71.50;;;;;;5114347;28;20047;-71
2022/02/12 11:48:08;;;;;;;10.23;5.93;;;16.90;72.40;;;;;;5113246;28;20408;-71
2022/02/12 11:51:12;;;;;;;11.00;6.25;;;16.80;72.20;;;;;;5117328;28;20043;-72
2022/02/12 11:54:59;;;;;;;11.88;6.65;;;16.80;72.80;;;;;;5115806;28;20043;-73
2022/02/12 11:58:02;;;;;;;10.30;6.30;;;16.80;73.90;;;;;;5113536;28;20039;-73
2022/02/12 12:01:22;;;;;;;10.70;5.40;;;16.90;73.70;;;;;;5116848;28;20043;-73
2022/02/12 12:04:30;;;;;;;11.38;5.88;;;16.90;72.30;;;;;;5115039;28;20051;-73
2022/02/12 12:11:10;;;;;;;9.60;4.75;;;17.00;72.90;;;;;;5115426;28;20051;-74
2022/02/12 12:14:24;;;;;;;14.48;6.15;;;17.00;71.70;;;;;;5115592;28;20050;-74
2022/02/12 12:17:32;;;;;;;14.45;6.38;;;17.10;73.10;;;;;;5114314;28;20047;-73
2022/02/12 12:20:44;;;;;;;10.63;5.75;;;17.10;73.10;;;;;;5113930;28;20050;-74
2022/02/12 12:23:57;;;;;;;10.30;5.50;;;17.10;73.10;;;;;;5115667;28;20043;-73
2022/02/12 12:27:01;;;;;;;9.27;5.57;;;17.20;72.30;;;;;;5117940;28;20043;-75
2022/02/12 12:33:40;;;;;;;9.52;5.10;;;17.10;72.70;;;;;;5115476;28;20510;-73
2022/02/12 12:36:45;;;;;;;7.45;4.75;;;17.00;71.60;;;;;;5114987;28;20043;-73
2022/02/12 12:39:52;;;;;;;8.65;5.60;;;16.90;71.10;;;;;;5113987;28;20047;-73
2022/02/12 12:43:01;;;;;;;10.60;5.28;;;17.00;72.10;;;;;;5114123;28;20050;-73
2022/02/12 12:46:06;;;;;;;9.52;4.72;;;17.00;72.10;;;;;;5115837;28;20070;-79
2022/02/12 12:49:10;;;;;;;10.27;5.50;;;17.00;71.90;;;;;;5114231;28;20216;-79
2022/02/12 12:52:17;;;;;;;10.07;5.25;;;16.90;71.80;;;;;;5116824;28;20078;-77
2022/02/12 12:55:21;;;;;;;10.45;5.25;;;17.00;72.30;;;;;;5115816;28;20046;-78
2022/02/12 12:58:25;;;;;;;10.27;4.88;;;17.00;72.40;;;;;;5114445;28;20054;-78
2022/02/12 13:01:29;;;;;;;8.43;4.43;;;16.90;72.00;;;;;;5114554;28;20502;-78
2022/02/12 13:04:40;;;;;;;7.47;4.72;;;17.00;71.40;;;;;;5114631;28;20047;-78
2022/02/12 13:07:47;;;;;;;11.85;5.43;;;17.00;70.90;;;;;;5115691;28;20048;-77
2022/02/12 13:10:53;;;;;;;11.10;5.60;;;17.10;71.80;;;;;;5115346;28;20042;-78
2022/02/12 13:14:04;;;;;;;11.13;5.72;;;17.00;71.00;;;;;;5115186;28;20055;-79
2022/02/12 13:17:08;;;;;;;10.45;6.40;;;17.00;72.40;;;;;;5116305;28;20046;-77
2022/02/12 13:20:14;;;;;;;7.70;4.80;;;17.00;72.80;;;;;;5116134;28;20070;-78
2022/02/12 13:23:21;;;;;;;9.52;6.35;;;17.00;72.60;;;;;;5114871;28;20043;-80
2022/02/12 13:26:44;;;;;;;11.85;6.20;;;17.00;72.70;;;;;;5113045;28;20054;-77
2022/02/12 13:29:48;;;;;;;13.88;6.70;;;17.00;73.40;;;;;;5113956;28;20038;-75
2022/02/12 13:32:52;;;;;;;11.68;5.97;;;16.90;73.30;;;;;;5112880;28;20054;-76
2022/02/12 13:36:01;;;;;;;9.70;6.70;;;17.00;72.40;;;;;;5110150;28;20034;-75
2022/02/12 13:39:06;;;;;;;11.38;6.10;;;17.00;73.00;;;;;;5111142;28;20055;-75
2022/02/12 13:42:10;;;;;;;8.68;6.10;;;17.00;72.80;;;;;;5113111;28;20070;-76
2022/02/12 13:45:14;;;;;;;11.52;5.75;;;17.00;73.00;;;;;;5111329;28;20042;-74
2022/02/12 13:48:21;;;;;;;12.35;5.43;;;17.00;71.90;;;;;;5111364;28;20055;-79
2022/02/12 13:51:25;;;;;;;13.10;5.28;;;17.00;72.30;;;;;;5114007;28;20030;-75
2022/02/12 13:54:32;;;;;;;10.32;4.82;;;17.00;70.50;;;;;;5113657;28;20051;-76
2022/02/12 13:57:36;;;;;;;8.88;4.25;;;17.00;70.60;;;;;;5112487;28;20145;-78
2022/02/12 14:00:44;;;;;;;8.30;4.03;;;17.00;70.10;;;;;;5113231;28;20130;-77
2022/02/12 14:03:53;;;;;;;8.63;4.57;;;17.00;69.80;;;;;;5120819;28;20043;-81
2022/02/12 14:06:57;;;;;;;13.48;5.20;;;16.90;70.30;;;;;;5118609;28;20046;-82
2022/02/12 14:10:01;;;;;;;9.20;5.80;;;16.90;70.60;;;;;;5116955;28;20047;-81
2022/02/12 14:13:05;;;;;;;10.60;6.25;;;16.90;71.40;;;;;;5118456;28;20149;-81
2022/02/12 14:16:09;;;;;;;10.52;5.72;;;16.90;71.60;;;;;;5117670;28;20047;-82
2022/02/12 14:19:14;;;;;;;10.38;5.53;;;16.80;72.20;;;;;;5116373;28;20383;-81
2022/02/12 14:22:18;;;;;;;9.40;5.57;;;16.80;72.60;;;;;;5120649;28;20121;-81
2022/02/12 14:25:24;;;;;;;8.23;4.72;;;16.90;72.20;;;;;;5119059;28;20043;-82
2022/02/12 14:28:28;;;;;;;10.38;5.18;;;16.90;71.50;;;;;;5120546;28;20391;-81
2022/02/12 14:31:32;;;;;;;11.57;6.20;;;16.90;71.80;;;;;;5120653;28;20506;-82
2022/02/12 14:34:37;;;;;;;13.77;5.93;;;16.80;71.60;;;;;;5119062;28;20051;-82
2022/02/12 14:37:41;;;;;;;9.73;5.20;;;16.70;71.70;;;;;;5119128;28;20047;-81
2022/02/12 14:40:46;;;;;;;10.15;5.90;;;16.70;71.60;;;;;;5117838;28;20051;-81
2022/02/12 14:43:56;;;;;;;10.88;5.60;;;16.60;72.00;;;;;;5119553;28;20050;-82
2022/02/12 14:47:00;;;;;;;8.55;5.28;;;16.60;72.80;;;;;;5121086;28;20055;-82
2022/02/12 14:50:08;;;;;;;9.02;5.65;;;16.50;73.00;;;;;;5121097;28;20054;-82
2022/02/12 14:53:12;;;;;;;14.65;5.68;;;16.50;73.20;;;;;;5119693;28;20050;-82
2022/02/12 14:56:23;;;;;;;13.05;5.60;;;16.50;72.80;;;;;;5121770;28;20051;-81
2022/02/12 14:59:27;;;;;;;8.80;4.93;;;16.60;72.50;;;;;;5120204;28;20047;-82
2022/02/12 15:02:32;;;;;;;7.68;5.20;;;16.50;73.00;;;;;;5121359;28;20054;-83
2022/02/12 15:05:36;;;;;;;10.10;5.93;;;16.50;73.00;;;;;;5119235;28;20046;-81
2022/02/12 15:08:40;;;;;;;14.30;5.38;;;16.30;74.90;;;;;;5119556;28;20050;-81
2022/02/12 15:11:46;;;;;;;9.55;5.72;;;16.30;75.90;;;;;;5117698;28;20047;-82
2022/02/12 15:14:55;;;;;;;13.40;6.18;;;16.10;76.40;;;;;;5105599;28;20399;-81
2022/02/12 15:17:59;;;;;;;12.15;5.00;;;16.00;76.60;;;;;;5121715;28;20046;-83
2022/02/12 15:21:04;;;;;;;10.43;4.70;;;15.90;75.60;;;;;;5118954;28;20043;-83
2022/02/12 15:24:09;;;;;;;8.70;3.97;;;15.80;75.30;;;;;;5121171;28;20058;-82
2022/02/12 15:27:14;;;;;;;17.90;4.82;;;15.70;75.30;;;;;;5120512;28;20506;-82
2022/02/12 15:30:21;;;;;;;10.27;5.22;;;15.60;75.50;;;;;;5119544;28;20043;-81
2022/02/12 15:33:25;;;;;;;6.43;4.13;;;15.60;75.40;;;;;;5119997;28;20257;-82
2022/02/12 15:36:30;;;;;;;6.80;3.90;;;15.50;75.50;;;;;;5120571;28;20038;-82
2022/02/12 15:39:41;;;;;;;11.95;6.30;;;15.50;75.60;;;;;;5118002;28;20039;-83
2022/02/12 15:42:46;;;;;;;8.05;4.22;;;15.40;76.00;;;;;;5119651;28;20034;-82
2022/02/12 15:45:49;;;;;;;6.22;3.90;;;15.30;76.50;;;;;;5119439;28;20141;-82
2022/02/12 15:48:55;;;;;;;16.33;4.90;;;15.30;77.10;;;;;;5119637;28;20121;-81
2022/02/12 15:52:02;;;;;;;7.20;4.75;;;15.20;78.00;;;;;;5117321;28;20054;-82
2022/02/12 15:55:06;;;;;;;7.72;5.28;;;15.10;78.50;;;;;;5120370;28;20399;-84
2022/02/12 15:58:11;;;;;;;7.85;4.38;;;15.00;79.10;;;;;;5117483;28;20050;-81
2022/02/12 16:01:21;;;;;;;5.03;3.88;;;14.90;79.50;;;;;;5116866;28;20050;-83
2022/02/12 16:04:24;;;;;;;13.07;4.38;;;14.80;79.40;;;;;;5116395;28;20051;-84
2022/02/12 16:07:30;;;;;;;10.48;4.90;;;14.70;80.00;;;;;;5117434;28;20383;-81
2022/02/12 16:10:34;;;;;;;6.82;3.00;;;14.60;80.50;;;;;;5117230;28;20038;-82
2022/02/12 16:13:38;;;;;;;6.22;4.00;;;14.50;80.90;;;;;;5116727;28;20054;-82